This is the latest recevied weather packets stored in our database for station/object HS3UAA-1. If no packets are shown the sender has not sent any weather packets the latest 10 day(s).
| Time | Temp. | Humidity | Pressure | Rain* | Wind** | Luminosity | Snow |
|---|---|---|---|---|---|---|---|
| 1777896255 | 33.33° C | 44% | 996 hPa | - | - | 0 W/m² | - |
| 1777895933 | 33.33° C | 43% | 996 hPa | - | - | 0 W/m² | - |
| 1777895611 | 33.33° C | 43% | 996 hPa | - | - | 0 W/m² | - |
| 1777895289 | 33.33° C | 43% | 995 hPa | - | - | 0 W/m² | - |
| 1777894967 | 33.89° C | 41% | 995 hPa | - | - | 0 W/m² | - |
| 1777894645 | 33.89° C | 41% | 995 hPa | - | - | 0 W/m² | - |
| 1777894323 | 33.89° C | 41% | 995 hPa | - | - | 0 W/m² | - |
| 1777894001 | 33.33° C | 43% | 995 hPa | - | - | 0 W/m² | - |
| 1777893679 | 33.33° C | 41% | 995 hPa | - | - | 0 W/m² | - |
| 1777893357 | 33.33° C | 41% | 994 hPa | - | - | 0 W/m² | - |
| 1777893035 | 33.33° C | 41% | 994 hPa | - | - | 0 W/m² | - |
| 1777892713 | 33.89° C | 40% | 994 hPa | - | - | 0 W/m² | - |
| 1777892390 | 32.78° C | 41% | 994 hPa | - | - | 0 W/m² | - |
| 1777892068 | 32.78° C | 42% | 994 hPa | - | - | 0 W/m² | - |
| 1777891746 | 32.22° C | 42% | 994 hPa | - | - | 0 W/m² | - |
| 1777891424 | 32.22° C | 42% | 994 hPa | - | - | 0 W/m² | - |
| 1777891102 | 31.67° C | 43% | 994 hPa | - | - | 0 W/m² | - |
| 1777890780 | 31.11° C | 43% | 995 hPa | - | - | 0 W/m² | - |
| 1777890458 | 30° C | 46% | 995 hPa | - | - | 0 W/m² | - |
| 1777890136 | 27.78° C | 52% | 995 hPa | - | - | 0 W/m² | - |
| 1777889814 | 27.78° C | 50% | 995 hPa | - | - | 0 W/m² | - |
| 1777889492 | 27.78° C | 49% | 995 hPa | - | - | 0 W/m² | - |
| 1777889170 | 27.78° C | 52% | 995 hPa | - | - | 0 W/m² | - |
| 1777888847 | 27.78° C | 54% | 995 hPa | - | - | 0 W/m² | - |
| 1777888525 | 27.78° C | 55% | 995 hPa | - | - | 0 W/m² | - |
* Rain since midnight (hover to see other rain measurements)
** Current wind speed in m/s (hover to see current wind gust speed)